sensor_id;sensor_type;location;lat;lon;timestamp;P1;durP1;ratioP1;P2;durP2;ratioP2
59302;SDS011;45074;52.764;6.896;2023-05-31T00:00:06;9.00;;;4.35;;
59302;SDS011;45074;52.764;6.896;2023-05-31T00:02:33;8.38;;;4.38;;
59302;SDS011;45074;52.764;6.896;2023-05-31T00:04:59;9.38;;;4.78;;
59302;SDS011;45074;52.764;6.896;2023-05-31T00:07:25;9.02;;;4.70;;
59302;SDS011;45074;52.764;6.896;2023-05-31T00:09:51;8.77;;;5.40;;
59302;SDS011;45074;52.764;6.896;2023-05-31T00:12:17;10.80;;;6.13;;
59302;SDS011;45074;52.764;6.896;2023-05-31T00:14:43;13.35;;;6.82;;
59302;SDS011;45074;52.764;6.896;2023-05-31T00:17:09;10.63;;;6.80;;
59302;SDS011;45074;52.764;6.896;2023-05-31T00:19:35;12.43;;;6.03;;
59302;SDS011;45074;52.764;6.896;2023-05-31T00:22:01;11.18;;;5.75;;
59302;SDS011;45074;52.764;6.896;2023-05-31T00:24:27;9.07;;;5.45;;
59302;SDS011;45074;52.764;6.896;2023-05-31T00:26:53;11.23;;;5.82;;
59302;SDS011;45074;52.764;6.896;2023-05-31T00:29:19;11.20;;;6.57;;
59302;SDS011;45074;52.764;6.896;2023-05-31T00:31:45;9.93;;;6.10;;
59302;SDS011;45074;52.764;6.896;2023-05-31T00:34:11;11.07;;;5.65;;
59302;SDS011;45074;52.764;6.896;2023-05-31T00:36:37;11.07;;;5.95;;
59302;SDS011;45074;52.764;6.896;2023-05-31T00:39:03;13.32;;;6.85;;
59302;SDS011;45074;52.764;6.896;2023-05-31T00:41:29;12.20;;;6.55;;
59302;SDS011;45074;52.764;6.896;2023-05-31T00:43:55;11.43;;;6.43;;
59302;SDS011;45074;52.764;6.896;2023-05-31T00:46:39;11.82;;;6.60;;
59302;SDS011;45074;52.764;6.896;2023-05-31T00:49:06;12.23;;;7.35;;
59302;SDS011;45074;52.764;6.896;2023-05-31T00:51:32;14.30;;;7.50;;
59302;SDS011;45074;52.764;6.896;2023-05-31T00:53:59;10.93;;;6.55;;
59302;SDS011;45074;52.764;6.896;2023-05-31T00:56:25;13.13;;;6.95;;
59302;SDS011;45074;52.764;6.896;2023-05-31T00:58:51;13.85;;;7.13;;
59302;SDS011;45074;52.764;6.896;2023-05-31T01:01:20;13.35;;;8.10;;
59302;SDS011;45074;52.764;6.896;2023-05-31T01:03:46;11.43;;;7.32;;
59302;SDS011;45074;52.764;6.896;2023-05-31T01:06:12;12.70;;;7.70;;
59302;SDS011;45074;52.764;6.896;2023-05-31T01:08:39;12.60;;;7.40;;
59302;SDS011;45074;52.764;6.896;2023-05-31T01:11:10;15.10;;;7.50;;
59302;SDS011;45074;52.764;6.896;2023-05-31T01:13:47;12.60;;;7.60;;
59302;SDS011;45074;52.764;6.896;2023-05-31T01:16:26;14.77;;;7.78;;
59302;SDS011;45074;52.764;6.896;2023-05-31T01:18:58;15.52;;;8.65;;
59302;SDS011;45074;52.764;6.896;2023-05-31T01:21:43;14.77;;;8.48;;
59302;SDS011;45074;52.764;6.896;2023-05-31T01:24:34;13.00;;;8.10;;
59302;SDS011;45074;52.764;6.896;2023-05-31T01:27:10;14.82;;;8.65;;
59302;SDS011;45074;52.764;6.896;2023-05-31T01:29:37;15.43;;;8.48;;
59302;SDS011;45074;52.764;6.896;2023-05-31T01:32:05;13.75;;;7.90;;
59302;SDS011;45074;52.764;6.896;2023-05-31T01:34:31;14.70;;;8.15;;
59302;SDS011;45074;52.764;6.896;2023-05-31T01:36:57;15.13;;;8.38;;
59302;SDS011;45074;52.764;6.896;2023-05-31T01:39:23;14.43;;;8.43;;
59302;SDS011;45074;52.764;6.896;2023-05-31T01:41:49;14.88;;;8.57;;
59302;SDS011;45074;52.764;6.896;2023-05-31T01:44:16;14.57;;;8.00;;
59302;SDS011;45074;52.764;6.896;2023-05-31T01:46:46;18.75;;;8.25;;
59302;SDS011;45074;52.764;6.896;2023-05-31T01:49:13;16.02;;;9.02;;
59302;SDS011;45074;52.764;6.896;2023-05-31T01:51:40;15.75;;;8.73;;
59302;SDS011;45074;52.764;6.896;2023-05-31T01:54:06;17.10;;;9.00;;
59302;SDS011;45074;52.764;6.896;2023-05-31T01:56:32;15.48;;;9.20;;
59302;SDS011;45074;52.764;6.896;2023-05-31T01:58:59;17.17;;;9.35;;
59302;SDS011;45074;52.764;6.896;2023-05-31T02:01:25;16.00;;;9.10;;
59302;SDS011;45074;52.764;6.896;2023-05-31T02:03:51;17.67;;;9.35;;
59302;SDS011;45074;52.764;6.896;2023-05-31T02:06:17;17.15;;;9.05;;
59302;SDS011;45074;52.764;6.896;2023-05-31T02:08:43;17.98;;;9.75;;
59302;SDS011;45074;52.764;6.896;2023-05-31T02:11:10;17.63;;;9.10;;
59302;SDS011;45074;52.764;6.896;2023-05-31T02:13:36;18.40;;;10.10;;
59302;SDS011;45074;52.764;6.896;2023-05-31T02:16:02;17.95;;;8.40;;
59302;SDS011;45074;52.764;6.896;2023-05-31T02:18:28;18.27;;;8.68;;
59302;SDS011;45074;52.764;6.896;2023-05-31T02:20:55;15.43;;;8.70;;
59302;SDS011;45074;52.764;6.896;2023-05-31T02:23:21;18.10;;;8.68;;
59302;SDS011;45074;52.764;6.896;2023-05-31T02:25:47;16.85;;;9.13;;
59302;SDS011;45074;52.764;6.896;2023-05-31T02:28:14;19.27;;;9.57;;
59302;SDS011;45074;52.764;6.896;2023-05-31T02:30:40;18.45;;;8.88;;
59302;SDS011;45074;52.764;6.896;2023-05-31T02:33:07;18.05;;;10.38;;
59302;SDS011;45074;52.764;6.896;2023-05-31T02:35:33;19.88;;;10.02;;
59302;SDS011;45074;52.764;6.896;2023-05-31T02:37:59;17.42;;;8.65;;
59302;SDS011;45074;52.764;6.896;2023-05-31T02:40:25;20.05;;;8.93;;
59302;SDS011;45074;52.764;6.896;2023-05-31T02:42:52;16.63;;;8.85;;
59302;SDS011;45074;52.764;6.896;2023-05-31T02:45:18;17.40;;;9.20;;
59302;SDS011;45074;52.764;6.896;2023-05-31T02:47:45;17.40;;;8.20;;
59302;SDS011;45074;52.764;6.896;2023-05-31T02:50:11;16.50;;;8.07;;
59302;SDS011;45074;52.764;6.896;2023-05-31T02:52:37;17.70;;;7.97;;
59302;SDS011;45074;52.764;6.896;2023-05-31T02:55:04;15.95;;;8.07;;
59302;SDS011;45074;52.764;6.896;2023-05-31T02:57:31;14.07;;;7.47;;
59302;SDS011;45074;52.764;6.896;2023-05-31T02:59:58;16.80;;;8.02;;
59302;SDS011;45074;52.764;6.896;2023-05-31T03:02:25;15.77;;;7.63;;
59302;SDS011;45074;52.764;6.896;2023-05-31T03:04:51;16.33;;;7.47;;
59302;SDS011;45074;52.764;6.896;2023-05-31T03:07:17;15.38;;;8.05;;
59302;SDS011;45074;52.764;6.896;2023-05-31T03:09:43;16.00;;;8.00;;
59302;SDS011;45074;52.764;6.896;2023-05-31T03:12:10;17.88;;;8.55;;
59302;SDS011;45074;52.764;6.896;2023-05-31T03:14:35;16.63;;;8.38;;
59302;SDS011;45074;52.764;6.896;2023-05-31T03:17:02;15.20;;;7.53;;
59302;SDS011;45074;52.764;6.896;2023-05-31T03:19:28;16.70;;;8.13;;
59302;SDS011;45074;52.764;6.896;2023-05-31T03:21:54;17.25;;;8.68;;
59302;SDS011;45074;52.764;6.896;2023-05-31T03:24:20;16.02;;;8.18;;
59302;SDS011;45074;52.764;6.896;2023-05-31T03:26:46;17.27;;;7.78;;
59302;SDS011;45074;52.764;6.896;2023-05-31T03:29:13;14.38;;;7.15;;
59302;SDS011;45074;52.764;6.896;2023-05-31T03:31:39;16.00;;;7.50;;
59302;SDS011;45074;52.764;6.896;2023-05-31T03:34:05;17.17;;;7.43;;
59302;SDS011;45074;52.764;6.896;2023-05-31T03:36:31;17.60;;;7.95;;
59302;SDS011;45074;52.764;6.896;2023-05-31T03:38:57;17.20;;;7.50;;
59302;SDS011;45074;52.764;6.896;2023-05-31T03:41:23;14.18;;;6.75;;
59302;SDS011;45074;52.764;6.896;2023-05-31T03:43:51;18.58;;;7.70;;
59302;SDS011;45074;52.764;6.896;2023-05-31T03:46:17;18.73;;;7.63;;
59302;SDS011;45074;52.764;6.896;2023-05-31T03:48:43;14.95;;;7.68;;
59302;SDS011;45074;52.764;6.896;2023-05-31T03:51:09;16.08;;;7.38;;
59302;SDS011;45074;52.764;6.896;2023-05-31T03:53:35;16.55;;;7.90;;
59302;SDS011;45074;52.764;6.896;2023-05-31T03:56:01;16.35;;;7.68;;
59302;SDS011;45074;52.764;6.896;2023-05-31T03:58:27;18.75;;;8.20;;
59302;SDS011;45074;52.764;6.896;2023-05-31T04:00:53;15.73;;;7.03;;
59302;SDS011;45074;52.764;6.896;2023-05-31T04:03:20;17.10;;;7.57;;
59302;SDS011;45074;52.764;6.896;2023-05-31T04:05:46;15.98;;;7.22;;
59302;SDS011;45074;52.764;6.896;2023-05-31T04:08:12;18.60;;;7.70;;
59302;SDS011;45074;52.764;6.896;2023-05-31T04:10:38;15.75;;;7.20;;
59302;SDS011;45074;52.764;6.896;2023-05-31T04:13:04;15.57;;;7.47;;
59302;SDS011;45074;52.764;6.896;2023-05-31T04:15:30;15.90;;;7.25;;
59302;SDS011;45074;52.764;6.896;2023-05-31T04:17:56;16.45;;;7.35;;
59302;SDS011;45074;52.764;6.896;2023-05-31T04:20:22;17.40;;;7.22;;
59302;SDS011;45074;52.764;6.896;2023-05-31T04:22:48;16.27;;;7.32;;
59302;SDS011;45074;52.764;6.896;2023-05-31T04:25:14;15.25;;;7.32;;
59302;SDS011;45074;52.764;6.896;2023-05-31T04:27:42;18.10;;;7.60;;
59302;SDS011;45074;52.764;6.896;2023-05-31T04:30:08;17.42;;;8.10;;
59302;SDS011;45074;52.764;6.896;2023-05-31T04:32:34;17.08;;;7.47;;
59302;SDS011;45074;52.764;6.896;2023-05-31T04:35:00;18.05;;;7.55;;
59302;SDS011;45074;52.764;6.896;2023-05-31T04:37:31;18.02;;;7.95;;
59302;SDS011;45074;52.764;6.896;2023-05-31T04:39:58;19.73;;;7.57;;
59302;SDS011;45074;52.764;6.896;2023-05-31T04:42:24;20.63;;;8.23;;
59302;SDS011;45074;52.764;6.896;2023-05-31T04:44:51;19.60;;;8.63;;
59302;SDS011;45074;52.764;6.896;2023-05-31T04:47:23;19.90;;;8.60;;
59302;SDS011;45074;52.764;6.896;2023-05-31T04:49:49;17.38;;;8.25;;
59302;SDS011;45074;52.764;6.896;2023-05-31T04:52:15;16.48;;;8.25;;
59302;SDS011;45074;52.764;6.896;2023-05-31T04:54:42;17.50;;;8.32;;
59302;SDS011;45074;52.764;6.896;2023-05-31T04:57:08;18.45;;;8.63;;
59302;SDS011;45074;52.764;6.896;2023-05-31T04:59:34;17.80;;;7.95;;
59302;SDS011;45074;52.764;6.896;2023-05-31T05:02:00;19.80;;;8.93;;
59302;SDS011;45074;52.764;6.896;2023-05-31T05:04:27;17.65;;;8.73;;
59302;SDS011;45074;52.764;6.896;2023-05-31T05:06:53;16.52;;;8.60;;
59302;SDS011;45074;52.764;6.896;2023-05-31T05:09:19;18.92;;;7.93;;
59302;SDS011;45074;52.764;6.896;2023-05-31T05:11:45;17.50;;;9.10;;
59302;SDS011;45074;52.764;6.896;2023-05-31T05:14:11;18.65;;;8.57;;
59302;SDS011;45074;52.764;6.896;2023-05-31T05:16:37;16.55;;;8.32;;
59302;SDS011;45074;52.764;6.896;2023-05-31T05:19:03;16.83;;;8.68;;
59302;SDS011;45074;52.764;6.896;2023-05-31T05:21:29;17.27;;;8.48;;
59302;SDS011;45074;52.764;6.896;2023-05-31T05:23:55;16.85;;;8.40;;
59302;SDS011;45074;52.764;6.896;2023-05-31T05:26:21;16.10;;;7.45;;
59302;SDS011;45074;52.764;6.896;2023-05-31T05:28:47;14.55;;;8.98;;
59302;SDS011;45074;52.764;6.896;2023-05-31T05:31:13;15.10;;;7.95;;
59302;SDS011;45074;52.764;6.896;2023-05-31T05:33:39;15.93;;;8.57;;
59302;SDS011;45074;52.764;6.896;2023-05-31T05:36:06;15.95;;;8.48;;
59302;SDS011;45074;52.764;6.896;2023-05-31T05:38:32;18.63;;;8.43;;
59302;SDS011;45074;52.764;6.896;2023-05-31T05:40:58;15.30;;;8.38;;
59302;SDS011;45074;52.764;6.896;2023-05-31T05:43:24;17.45;;;8.88;;
59302;SDS011;45074;52.764;6.896;2023-05-31T05:45:50;21.00;;;9.50;;
59302;SDS011;45074;52.764;6.896;2023-05-31T05:48:16;18.60;;;9.15;;
59302;SDS011;45074;52.764;6.896;2023-05-31T05:50:42;17.60;;;9.20;;
59302;SDS011;45074;52.764;6.896;2023-05-31T05:53:08;16.73;;;9.75;;
59302;SDS011;45074;52.764;6.896;2023-05-31T05:55:36;15.30;;;9.18;;
59302;SDS011;45074;52.764;6.896;2023-05-31T05:58:02;16.20;;;8.98;;
59302;SDS011;45074;52.764;6.896;2023-05-31T06:00:28;19.02;;;8.95;;
59302;SDS011;45074;52.764;6.896;2023-05-31T06:02:54;17.80;;;8.95;;
59302;SDS011;45074;52.764;6.896;2023-05-31T06:05:19;17.92;;;8.63;;
59302;SDS011;45074;52.764;6.896;2023-05-31T06:07:51;15.98;;;8.77;;
59302;SDS011;45074;52.764;6.896;2023-05-31T06:10:17;14.32;;;7.70;;
59302;SDS011;45074;52.764;6.896;2023-05-31T06:12:43;13.43;;;8.40;;
59302;SDS011;45074;52.764;6.896;2023-05-31T06:15:09;13.88;;;7.88;;
59302;SDS011;45074;52.764;6.896;2023-05-31T06:17:35;14.30;;;7.68;;
59302;SDS011;45074;52.764;6.896;2023-05-31T06:20:02;16.10;;;8.48;;
59302;SDS011;45074;52.764;6.896;2023-05-31T06:22:30;13.50;;;7.13;;
59302;SDS011;45074;52.764;6.896;2023-05-31T06:24:57;14.32;;;7.90;;
59302;SDS011;45074;52.764;6.896;2023-05-31T06:27:23;15.23;;;7.93;;
59302;SDS011;45074;52.764;6.896;2023-05-31T06:29:49;13.82;;;7.80;;
59302;SDS011;45074;52.764;6.896;2023-05-31T06:32:22;15.60;;;7.65;;
59302;SDS011;45074;52.764;6.896;2023-05-31T06:34:48;14.43;;;7.50;;
59302;SDS011;45074;52.764;6.896;2023-05-31T06:37:15;14.43;;;7.82;;
59302;SDS011;45074;52.764;6.896;2023-05-31T06:39:41;14.02;;;7.05;;
59302;SDS011;45074;52.764;6.896;2023-05-31T06:42:07;16.73;;;7.10;;
59302;SDS011;45074;52.764;6.896;2023-05-31T06:44:33;13.10;;;7.53;;
59302;SDS011;45074;52.764;6.896;2023-05-31T06:46:59;18.85;;;8.32;;
59302;SDS011;45074;52.764;6.896;2023-05-31T06:49:25;12.32;;;7.22;;
59302;SDS011;45074;52.764;6.896;2023-05-31T06:51:52;10.93;;;6.70;;
59302;SDS011;45074;52.764;6.896;2023-05-31T06:54:18;12.38;;;7.07;;
59302;SDS011;45074;52.764;6.896;2023-05-31T06:56:45;14.70;;;7.20;;
59302;SDS011;45074;52.764;6.896;2023-05-31T06:59:11;11.70;;;6.93;;
59302;SDS011;45074;52.764;6.896;2023-05-31T07:01:36;13.20;;;6.60;;
59302;SDS011;45074;52.764;6.896;2023-05-31T07:04:02;12.98;;;6.90;;
59302;SDS011;45074;52.764;6.896;2023-05-31T07:06:28;11.35;;;7.03;;
59302;SDS011;45074;52.764;6.896;2023-05-31T07:08:54;13.88;;;7.15;;
59302;SDS011;45074;52.764;6.896;2023-05-31T07:11:20;13.20;;;6.80;;
59302;SDS011;45074;52.764;6.896;2023-05-31T07:13:47;12.27;;;6.70;;
59302;SDS011;45074;52.764;6.896;2023-05-31T07:16:13;10.88;;;6.38;;
59302;SDS011;45074;52.764;6.896;2023-05-31T07:18:39;13.77;;;6.60;;
59302;SDS011;45074;52.764;6.896;2023-05-31T07:21:05;13.77;;;6.63;;
59302;SDS011;45074;52.764;6.896;2023-05-31T07:23:33;13.90;;;6.80;;
59302;SDS011;45074;52.764;6.896;2023-05-31T07:25:59;10.90;;;6.22;;
59302;SDS011;45074;52.764;6.896;2023-05-31T07:28:28;12.85;;;6.20;;
59302;SDS011;45074;52.764;6.896;2023-05-31T07:30:54;11.68;;;5.90;;
59302;SDS011;45074;52.764;6.896;2023-05-31T07:33:20;11.13;;;5.75;;
59302;SDS011;45074;52.764;6.896;2023-05-31T07:35:47;13.68;;;6.53;;
59302;SDS011;45074;52.764;6.896;2023-05-31T07:38:13;10.73;;;5.75;;
59302;SDS011;45074;52.764;6.896;2023-05-31T07:40:39;9.75;;;5.25;;
59302;SDS011;45074;52.764;6.896;2023-05-31T07:43:05;11.48;;;5.10;;
59302;SDS011;45074;52.764;6.896;2023-05-31T07:45:31;11.40;;;5.65;;
59302;SDS011;45074;52.764;6.896;2023-05-31T07:47:57;9.82;;;5.50;;
59302;SDS011;45074;52.764;6.896;2023-05-31T07:50:23;10.73;;;5.22;;
59302;SDS011;45074;52.764;6.896;2023-05-31T07:52:49;11.55;;;4.82;;
59302;SDS011;45074;52.764;6.896;2023-05-31T07:55:16;10.85;;;5.07;;
59302;SDS011;45074;52.764;6.896;2023-05-31T07:57:43;10.50;;;5.72;;
59302;SDS011;45074;52.764;6.896;2023-05-31T08:00:09;9.88;;;5.13;;
59302;SDS011;45074;52.764;6.896;2023-05-31T08:02:38;11.15;;;4.97;;
59302;SDS011;45074;52.764;6.896;2023-05-31T08:05:04;10.95;;;5.30;;
59302;SDS011;45074;52.764;6.896;2023-05-31T08:07:30;11.75;;;5.05;;
59302;SDS011;45074;52.764;6.896;2023-05-31T08:09:56;10.07;;;5.15;;
59302;SDS011;45074;52.764;6.896;2023-05-31T08:12:23;10.50;;;4.82;;
59302;SDS011;45074;52.764;6.896;2023-05-31T08:14:49;10.23;;;4.88;;
59302;SDS011;45074;52.764;6.896;2023-05-31T08:17:15;10.50;;;5.00;;
59302;SDS011;45074;52.764;6.896;2023-05-31T08:19:41;9.35;;;4.72;;
59302;SDS011;45074;52.764;6.896;2023-05-31T08:22:07;8.60;;;4.20;;
59302;SDS011;45074;52.764;6.896;2023-05-31T08:24:33;9.15;;;4.93;;
59302;SDS011;45074;52.764;6.896;2023-05-31T08:26:59;10.65;;;4.88;;
59302;SDS011;45074;52.764;6.896;2023-05-31T08:29:26;11.80;;;4.78;;
59302;SDS011;45074;52.764;6.896;2023-05-31T08:31:53;9.43;;;4.13;;
59302;SDS011;45074;52.764;6.896;2023-05-31T08:34:18;8.43;;;4.88;;
59302;SDS011;45074;52.764;6.896;2023-05-31T08:36:44;9.40;;;4.28;;
59302;SDS011;45074;52.764;6.896;2023-05-31T08:39:10;9.38;;;4.10;;
59302;SDS011;45074;52.764;6.896;2023-05-31T08:41:38;9.98;;;4.00;;
59302;SDS011;45074;52.764;6.896;2023-05-31T08:44:18;9.25;;;4.05;;
59302;SDS011;45074;52.764;6.896;2023-05-31T08:46:44;9.80;;;4.20;;
59302;SDS011;45074;52.764;6.896;2023-05-31T08:49:12;7.95;;;3.80;;
59302;SDS011;45074;52.764;6.896;2023-05-31T08:51:41;7.95;;;4.30;;
59302;SDS011;45074;52.764;6.896;2023-05-31T08:54:10;8.70;;;4.27;;
59302;SDS011;45074;52.764;6.896;2023-05-31T08:56:37;10.55;;;3.90;;
59302;SDS011;45074;52.764;6.896;2023-05-31T08:59:03;8.43;;;3.63;;
59302;SDS011;45074;52.764;6.896;2023-05-31T09:01:30;8.82;;;3.55;;
59302;SDS011;45074;52.764;6.896;2023-05-31T09:03:56;9.02;;;4.00;;
59302;SDS011;45074;52.764;6.896;2023-05-31T09:06:22;9.43;;;3.95;;
59302;SDS011;45074;52.764;6.896;2023-05-31T09:08:48;7.72;;;3.55;;
59302;SDS011;45074;52.764;6.896;2023-05-31T09:11:15;8.18;;;3.70;;
59302;SDS011;45074;52.764;6.896;2023-05-31T09:13:41;8.90;;;3.78;;
59302;SDS011;45074;52.764;6.896;2023-05-31T09:16:07;8.90;;;4.03;;
59302;SDS011;45074;52.764;6.896;2023-05-31T09:18:37;8.85;;;4.03;;
59302;SDS011;45074;52.764;6.896;2023-05-31T09:21:13;9.10;;;4.00;;
59302;SDS011;45074;52.764;6.896;2023-05-31T09:23:52;8.30;;;3.80;;
59302;SDS011;45074;52.764;6.896;2023-05-31T09:26:22;10.00;;;3.80;;
59302;SDS011;45074;52.764;6.896;2023-05-31T09:28:49;9.98;;;4.07;;
59302;SDS011;45074;52.764;6.896;2023-05-31T09:31:16;9.32;;;4.00;;
59302;SDS011;45074;52.764;6.896;2023-05-31T09:33:46;9.18;;;4.13;;
59302;SDS011;45074;52.764;6.896;2023-05-31T09:36:25;9.35;;;4.13;;
59302;SDS011;45074;52.764;6.896;2023-05-31T09:39:03;9.10;;;4.00;;
59302;SDS011;45074;52.764;6.896;2023-05-31T09:41:30;9.75;;;3.58;;
59302;SDS011;45074;52.764;6.896;2023-05-31T09:43:57;9.65;;;3.47;;
59302;SDS011;45074;52.764;6.896;2023-05-31T09:46:24;8.52;;;3.85;;
59302;SDS011;45074;52.764;6.896;2023-05-31T09:51:26;9.20;;;3.50;;
59302;SDS011;45074;52.764;6.896;2023-05-31T09:53:52;9.07;;;3.20;;
59302;SDS011;45074;52.764;6.896;2023-05-31T09:56:21;7.53;;;3.35;;
59302;SDS011;45074;52.764;6.896;2023-05-31T09:58:47;9.15;;;3.63;;
59302;SDS011;45074;52.764;6.896;2023-05-31T10:01:14;9.70;;;3.85;;
59302;SDS011;45074;52.764;6.896;2023-05-31T10:03:41;9.48;;;3.88;;
59302;SDS011;45074;52.764;6.896;2023-05-31T10:06:08;8.40;;;3.70;;
59302;SDS011;45074;52.764;6.896;2023-05-31T10:08:34;9.65;;;3.60;;
59302;SDS011;45074;52.764;6.896;2023-05-31T10:11:00;9.25;;;3.60;;
59302;SDS011;45074;52.764;6.896;2023-05-31T10:13:30;7.40;;;3.65;;
59302;SDS011;45074;52.764;6.896;2023-05-31T10:15:58;7.55;;;3.63;;
59302;SDS011;45074;52.764;6.896;2023-05-31T10:18:30;8.50;;;3.95;;
59302;SDS011;45074;52.764;6.896;2023-05-31T10:21:00;9.68;;;3.92;;
59302;SDS011;45074;52.764;6.896;2023-05-31T10:23:28;8.93;;;3.45;;
59302;SDS011;45074;52.764;6.896;2023-05-31T10:26:04;9.07;;;4.07;;
59302;SDS011;45074;52.764;6.896;2023-05-31T10:28:38;9.93;;;4.10;;
59302;SDS011;45074;52.764;6.896;2023-05-31T10:31:06;7.72;;;3.70;;
59302;SDS011;45074;52.764;6.896;2023-05-31T10:33:37;9.23;;;4.03;;
59302;SDS011;45074;52.764;6.896;2023-05-31T10:36:05;8.27;;;3.90;;
59302;SDS011;45074;52.764;6.896;2023-05-31T10:41:28;10.68;;;4.13;;
59302;SDS011;45074;52.764;6.896;2023-05-31T10:44:00;9.18;;;3.70;;
59302;SDS011;45074;52.764;6.896;2023-05-31T10:46:28;8.97;;;4.23;;
59302;SDS011;45074;52.764;6.896;2023-05-31T10:48:57;8.25;;;4.03;;
59302;SDS011;45074;52.764;6.896;2023-05-31T10:51:42;10.38;;;4.80;;
59302;SDS011;45074;52.764;6.896;2023-05-31T10:54:21;8.32;;;4.32;;
59302;SDS011;45074;52.764;6.896;2023-05-31T10:56:54;8.10;;;3.58;;
59302;SDS011;45074;52.764;6.896;2023-05-31T10:59:21;10.27;;;3.85;;
59302;SDS011;45074;52.764;6.896;2023-05-31T11:01:48;8.35;;;4.07;;
59302;SDS011;45074;52.764;6.896;2023-05-31T11:04:21;7.70;;;3.70;;
59302;SDS011;45074;52.764;6.896;2023-05-31T11:06:52;8.07;;;3.60;;
59302;SDS011;45074;52.764;6.896;2023-05-31T11:09:18;9.00;;;3.72;;
59302;SDS011;45074;52.764;6.896;2023-05-31T11:11:46;8.82;;;3.95;;
59302;SDS011;45074;52.764;6.896;2023-05-31T11:19:14;8.48;;;3.78;;
59302;SDS011;45074;52.764;6.896;2023-05-31T11:21:50;16.33;;;11.60;;
59302;SDS011;45074;52.764;6.896;2023-05-31T11:26:58;8.77;;;3.40;;
59302;SDS011;45074;52.764;6.896;2023-05-31T11:29:31;10.10;;;3.78;;
59302;SDS011;45074;52.764;6.896;2023-05-31T11:32:14;9.52;;;3.70;;
59302;SDS011;45074;52.764;6.896;2023-05-31T11:34:57;8.13;;;3.85;;
59302;SDS011;45074;52.764;6.896;2023-05-31T11:37:26;8.75;;;4.10;;
59302;SDS011;45074;52.764;6.896;2023-05-31T11:39:53;11.27;;;3.78;;
59302;SDS011;45074;52.764;6.896;2023-05-31T11:42:20;8.73;;;3.70;;
59302;SDS011;45074;52.764;6.896;2023-05-31T11:44:46;8.80;;;4.07;;
59302;SDS011;45074;52.764;6.896;2023-05-31T11:47:19;11.90;;;5.55;;
59302;SDS011;45074;52.764;6.896;2023-05-31T11:49:46;8.10;;;3.60;;
59302;SDS011;45074;52.764;6.896;2023-05-31T11:52:16;8.85;;;4.18;;
59302;SDS011;45074;52.764;6.896;2023-05-31T11:54:47;9.95;;;3.83;;
59302;SDS011;45074;52.764;6.896;2023-05-31T11:57:14;9.35;;;3.90;;
59302;SDS011;45074;52.764;6.896;2023-05-31T11:59:41;9.43;;;3.88;;
59302;SDS011;45074;52.764;6.896;2023-05-31T12:02:08;9.40;;;4.93;;
59302;SDS011;45074;52.764;6.896;2023-05-31T12:04:36;9.98;;;4.85;;
59302;SDS011;45074;52.764;6.896;2023-05-31T12:07:03;10.43;;;4.25;;
59302;SDS011;45074;52.764;6.896;2023-05-31T12:09:29;10.02;;;4.18;;
59302;SDS011;45074;52.764;6.896;2023-05-31T12:11:56;10.20;;;4.30;;
59302;SDS011;45074;52.764;6.896;2023-05-31T12:14:22;8.32;;;3.75;;
59302;SDS011;45074;52.764;6.896;2023-05-31T12:16:50;9.23;;;3.65;;
59302;SDS011;45074;52.764;6.896;2023-05-31T12:19:16;7.85;;;3.47;;
59302;SDS011;45074;52.764;6.896;2023-05-31T12:21:42;8.55;;;3.75;;
59302;SDS011;45074;52.764;6.896;2023-05-31T12:24:11;7.32;;;3.83;;
59302;SDS011;45074;52.764;6.896;2023-05-31T12:26:38;8.40;;;4.40;;
59302;SDS011;45074;52.764;6.896;2023-05-31T12:29:04;9.50;;;4.15;;
59302;SDS011;45074;52.764;6.896;2023-05-31T12:31:30;11.05;;;4.50;;
59302;SDS011;45074;52.764;6.896;2023-05-31T12:33:59;9.18;;;4.10;;
59302;SDS011;45074;52.764;6.896;2023-05-31T12:36:26;9.52;;;4.22;;
59302;SDS011;45074;52.764;6.896;2023-05-31T12:38:55;8.75;;;4.47;;
59302;SDS011;45074;52.764;6.896;2023-05-31T12:41:21;12.75;;;4.82;;
59302;SDS011;45074;52.764;6.896;2023-05-31T12:43:48;11.23;;;4.32;;
59302;SDS011;45074;52.764;6.896;2023-05-31T12:46:17;9.80;;;4.25;;
59302;SDS011;45074;52.764;6.896;2023-05-31T12:48:47;11.13;;;4.80;;
59302;SDS011;45074;52.764;6.896;2023-05-31T12:51:13;9.60;;;4.50;;
59302;SDS011;45074;52.764;6.896;2023-05-31T12:53:45;15.07;;;9.68;;
59302;SDS011;45074;52.764;6.896;2023-05-31T12:56:11;9.82;;;5.03;;
59302;SDS011;45074;52.764;6.896;2023-05-31T12:58:37;10.45;;;4.85;;
59302;SDS011;45074;52.764;6.896;2023-05-31T13:01:03;9.60;;;4.40;;
59302;SDS011;45074;52.764;6.896;2023-05-31T13:03:30;9.60;;;4.13;;
59302;SDS011;45074;52.764;6.896;2023-05-31T13:05:56;10.35;;;4.88;;
59302;SDS011;45074;52.764;6.896;2023-05-31T13:08:22;9.73;;;4.70;;
59302;SDS011;45074;52.764;6.896;2023-05-31T13:10:48;9.70;;;4.82;;
59302;SDS011;45074;52.764;6.896;2023-05-31T13:13:14;8.10;;;4.35;;
59302;SDS011;45074;52.764;6.896;2023-05-31T13:15:41;9.95;;;4.55;;
59302;SDS011;45074;52.764;6.896;2023-05-31T13:18:07;6.68;;;3.55;;
59302;SDS011;45074;52.764;6.896;2023-05-31T13:20:33;10.52;;;3.60;;
59302;SDS011;45074;52.764;6.896;2023-05-31T13:22:59;6.95;;;3.97;;
59302;SDS011;45074;52.764;6.896;2023-05-31T13:25:26;10.02;;;4.28;;
59302;SDS011;45074;52.764;6.896;2023-05-31T13:27:52;10.55;;;4.07;;
59302;SDS011;45074;52.764;6.896;2023-05-31T13:30:18;7.82;;;3.65;;
59302;SDS011;45074;52.764;6.896;2023-05-31T13:32:44;8.85;;;4.18;;
59302;SDS011;45074;52.764;6.896;2023-05-31T13:35:10;27.50;;;18.83;;
59302;SDS011;45074;52.764;6.896;2023-05-31T13:37:37;8.50;;;3.90;;
59302;SDS011;45074;52.764;6.896;2023-05-31T13:40:04;6.63;;;3.50;;
59302;SDS011;45074;52.764;6.896;2023-05-31T13:42:30;8.73;;;3.40;;
59302;SDS011;45074;52.764;6.896;2023-05-31T13:44:56;5.90;;;3.22;;
59302;SDS011;45074;52.764;6.896;2023-05-31T13:47:22;8.00;;;3.22;;
59302;SDS011;45074;52.764;6.896;2023-05-31T13:49:48;6.72;;;2.80;;
59302;SDS011;45074;52.764;6.896;2023-05-31T13:52:15;6.30;;;2.60;;
59302;SDS011;45074;52.764;6.896;2023-05-31T13:54:41;8.20;;;2.65;;
59302;SDS011;45074;52.764;6.896;2023-05-31T13:57:07;6.85;;;2.75;;
59302;SDS011;45074;52.764;6.896;2023-05-31T13:59:33;6.18;;;2.63;;
59302;SDS011;45074;52.764;6.896;2023-05-31T14:01:59;6.45;;;2.33;;
59302;SDS011;45074;52.764;6.896;2023-05-31T14:04:25;5.15;;;2.33;;
59302;SDS011;45074;52.764;6.896;2023-05-31T14:06:51;5.32;;;2.38;;
59302;SDS011;45074;52.764;6.896;2023-05-31T14:09:18;6.82;;;2.80;;
59302;SDS011;45074;52.764;6.896;2023-05-31T14:11:44;5.38;;;2.33;;
59302;SDS011;45074;52.764;6.896;2023-05-31T14:14:11;7.15;;;2.50;;
59302;SDS011;45074;52.764;6.896;2023-05-31T14:16:37;5.90;;;2.38;;
59302;SDS011;45074;52.764;6.896;2023-05-31T14:19:03;7.05;;;2.50;;
59302;SDS011;45074;52.764;6.896;2023-05-31T14:21:29;6.45;;;2.42;;
59302;SDS011;45074;52.764;6.896;2023-05-31T14:23:57;6.40;;;2.17;;
59302;SDS011;45074;52.764;6.896;2023-05-31T14:26:23;6.35;;;2.13;;
59302;SDS011;45074;52.764;6.896;2023-05-31T14:28:49;6.97;;;2.72;;
59302;SDS011;45074;52.764;6.896;2023-05-31T14:31:15;7.20;;;2.58;;
59302;SDS011;45074;52.764;6.896;2023-05-31T14:33:41;6.55;;;3.20;;
59302;SDS011;45074;52.764;6.896;2023-05-31T14:36:07;6.50;;;2.60;;
59302;SDS011;45074;52.764;6.896;2023-05-31T14:38:33;7.13;;;2.78;;
59302;SDS011;45074;52.764;6.896;2023-05-31T14:40:59;6.93;;;2.50;;
59302;SDS011;45074;52.764;6.896;2023-05-31T14:43:25;7.55;;;2.50;;
59302;SDS011;45074;52.764;6.896;2023-05-31T14:45:51;7.53;;;2.60;;
59302;SDS011;45074;52.764;6.896;2023-05-31T14:48:18;6.28;;;2.50;;
59302;SDS011;45074;52.764;6.896;2023-05-31T14:50:44;8.00;;;2.75;;